Terminal Aerodrome Forecast
Issued by NWS

Home | Current Version | Previous Version | Text Only | Print | Product List | Glossary On
Versions: 1 2 3 4 5 6 7 8 9 10 11 12 13 14 15 16 17 18 19 20
817
FTUS43 KGRR 301140
TAFMKG
TAF
KMKG 301140Z 3012/3112 05008KT P6SM -RA FEW027 BKN120 OVC210
     FM301400 07008KT P6SM BKN040 OVC120
     FM301600 06007KT 4SM -SHRA BR VCTS OVC040CB
     FM310100 08009KT P6SM VCTS BKN050CB BKN080
     FM310500 07007KT 3SM -SHRA BR OVC015=

USA.gov is the U.S. government's official web portal to all federal, state and local government web resources and services.